createdAt,value
2019-04-25T00:01:11.608Z,95718.77
2019-04-25T00:03:38.392Z,95717.39
2019-04-25T00:06:05.172Z,95713.73
2019-04-25T00:08:33.160Z,95719.56
2019-04-25T00:11:01.705Z,95724.97
2019-04-25T00:13:27.273Z,95723.31
2019-04-25T00:15:54.425Z,95720.66
2019-04-25T00:18:23.360Z,95722.69
2019-04-25T00:20:52.283Z,95717.65
2019-04-25T00:23:18.603Z,95716.51
2019-04-25T00:25:47.148Z,95716.52
2019-04-25T00:28:12.128Z,95720.78
2019-04-25T00:30:40.309Z,95718.91
2019-04-25T00:33:05.670Z,95719.80
2019-04-25T00:35:32.510Z,95719.17
2019-04-25T00:37:59.354Z,95719.41
2019-04-25T00:40:26.056Z,95726.84
2019-04-25T00:42:53.842Z,95724.97
2019-04-25T00:45:19.674Z,95719.80
2019-04-25T00:47:46.384Z,95721.92
2019-04-25T00:50:13.156Z,95719.78
2019-04-25T00:52:41.443Z,95728.38
2019-04-25T00:55:06.840Z,95735.33
2019-04-25T00:57:33.536Z,95739.11
2019-04-25T01:00:01.846Z,95733.29
2019-04-25T01:02:27.047Z,95736.83
2019-04-25T01:04:54.371Z,95739.36
2019-04-25T01:07:22.395Z,95742.77
2019-04-25T01:09:47.904Z,95741.37
2019-04-25T01:12:15.304Z,95743.02
2019-04-25T01:14:42.511Z,95738.71
2019-04-25T01:17:09.331Z,95744.90
2019-04-25T01:19:38.338Z,95744.90
2019-04-25T01:24:33.909Z,95738.34
2019-04-25T01:26:59.084Z,95737.20
2019-04-25T01:29:26.138Z,95742.75
2019-04-25T01:31:54.418Z,95746.78
2019-04-25T01:34:20.654Z,95743.62
2019-04-25T01:36:47.417Z,95743.88
2019-04-25T01:39:14.411Z,95744.12
2019-04-25T01:41:40.905Z,95745.52
2019-04-25T01:44:08.147Z,95751.96
2019-04-25T01:46:35.053Z,95754.63
2019-04-25T01:49:01.744Z,95743.01
2019-04-25T01:51:28.514Z,95738.95
2019-04-25T01:53:56.812Z,95733.78
2019-04-25T01:56:24.606Z,95738.58
2019-04-25T01:58:49.813Z,95747.53
2019-04-25T02:01:18.297Z,95740.20
2019-04-25T02:03:45.507Z,95741.11
2019-04-25T02:06:13.630Z,95729.88
2019-04-25T02:08:39.395Z,95724.94
2019-04-25T02:11:06.224Z,95734.14
2019-04-25T02:13:33.597Z,95739.58
2019-04-25T02:15:59.793Z,95737.44
2019-04-25T02:18:27.827Z,95729.50
2019-04-25T02:20:57.907Z,95723.81
2019-04-25T02:23:21.358Z,95721.03
2019-04-25T02:25:48.095Z,95730.99
2019-04-25T02:28:15.864Z,95728.70
2019-04-25T02:30:41.566Z,95721.28
2019-04-25T02:33:09.246Z,95716.98
2019-04-25T02:35:35.167Z,95716.11
2019-04-25T02:38:04.595Z,95716.73
2019-04-25T02:40:28.603Z,95723.16
2019-04-25T02:42:57.335Z,95721.02
2019-04-25T02:45:24.408Z,95720.00
2019-04-25T02:47:48.839Z,95726.42
2019-04-25T02:50:15.621Z,95733.12
2019-04-25T02:52:44.242Z,95741.69
2019-04-25T02:55:11.088Z,95740.68
2019-04-25T02:57:36.227Z,95735.52
2019-04-25T03:00:05.968Z,95739.30
2019-04-25T03:02:29.796Z,95749.00
2019-04-25T03:04:58.376Z,95746.72
2019-04-25T03:07:24.656Z,95735.97
2019-04-25T03:12:29.175Z,95751.86
2019-04-25T03:14:44.695Z,95748.94
2019-04-25T03:17:11.378Z,95741.48
2019-04-25T03:19:38.097Z,95743.53
2019-04-25T03:22:09.157Z,95748.94
2019-04-25T03:24:34.927Z,95745.92
2019-04-25T03:26:59.404Z,95744.41
2019-04-25T03:29:25.792Z,95735.31
2019-04-25T03:31:55.618Z,95737.84
2019-04-25T03:34:20.756Z,95740.48
2019-04-25T03:36:46.278Z,95741.88
2019-04-25T03:39:16.270Z,95745.41
2019-04-25T03:41:39.793Z,95748.31
2019-04-25T03:44:10.148Z,95747.83
2019-04-25T03:46:36.858Z,95748.84
2019-04-25T03:49:05.015Z,95748.45
2019-04-25T03:51:30.554Z,95742.63
2019-04-25T03:53:57.752Z,95745.55
2019-04-25T03:56:24.934Z,95742.39
2019-04-25T03:58:51.435Z,95747.80
2019-04-25T04:01:18.153Z,95742.14
2019-04-25T04:06:11.805Z,95761.91
2019-04-25T04:08:38.546Z,95763.43
2019-04-25T04:11:07.324Z,95764.30
2019-04-25T04:13:32.028Z,95762.43
2019-04-25T04:15:58.870Z,95770.66
2019-04-25T04:18:27.038Z,95769.99
2019-04-25T04:20:53.487Z,95752.34
2019-04-25T04:23:19.116Z,95780.15
2019-04-25T04:28:14.055Z,95777.79
2019-04-25T04:30:39.616Z,95774.16
2019-04-25T04:33:06.976Z,95785.50
2019-04-25T04:35:33.623Z,95789.06
2019-04-25T04:38:00.009Z,95787.23
2019-04-25T04:40:26.780Z,95790.77
2019-04-25T04:42:53.623Z,95791.29
2019-04-25T04:45:20.336Z,95800.00
2019-04-25T04:50:15.320Z,95806.31
2019-04-25T04:52:40.990Z,95813.53
2019-04-25T04:55:09.719Z,95807.00
2019-04-25T04:57:36.270Z,95805.34
2019-04-25T05:00:01.514Z,95805.61
2019-04-25T05:02:30.406Z,95806.75
2019-04-25T05:04:57.613Z,95805.36
2019-04-25T05:07:25.381Z,95806.88
2019-04-25T05:09:51.285Z,95807.13
2019-04-25T05:12:19.302Z,95808.66
2019-04-25T05:14:45.443Z,95808.03
2019-04-25T05:17:16.347Z,95804.00
2019-04-25T05:19:43.439Z,95801.98
2019-04-25T05:22:09.681Z,95802.25
2019-04-25T05:24:36.619Z,95813.25
2019-04-25T05:27:03.854Z,95807.32
2019-04-25T05:29:30.380Z,95808.31
2019-04-25T05:31:57.078Z,95806.67
2019-04-25T05:34:25.613Z,95805.16
2019-04-25T05:36:50.810Z,95797.44
2019-04-25T05:39:18.186Z,95801.61
2019-04-25T05:41:44.591Z,95795.55
2019-04-25T05:44:11.748Z,95799.94
2019-04-25T05:46:38.947Z,95796.27
2019-04-25T05:49:05.736Z,95804.35
2019-04-25T05:51:33.837Z,95804.34
2019-04-25T05:53:59.682Z,95800.92
2019-04-25T05:56:28.281Z,95805.35
2019-04-25T05:58:54.146Z,95799.38
2019-04-25T06:01:21.291Z,95800.41
2019-04-25T06:03:48.177Z,95796.61
2019-04-25T06:06:15.290Z,95797.09
2019-04-25T06:11:11.235Z,95797.20
2019-04-25T06:13:38.929Z,95802.11
2019-04-25T06:16:09.027Z,95800.43
2019-04-25T06:18:40.595Z,95800.20
2019-04-25T06:21:08.257Z,95800.25
2019-04-25T06:23:39.986Z,95808.72
2019-04-25T06:26:19.079Z,95799.70
2019-04-25T06:28:49.004Z,95798.05
2019-04-25T06:31:10.262Z,95796.14
2019-04-25T06:33:35.935Z,95802.30
2019-04-25T06:36:06.823Z,95801.00
2019-04-25T06:38:37.247Z,95800.60
2019-04-25T06:41:05.638Z,95804.13
2019-04-25T06:43:34.316Z,95799.41
2019-04-25T06:46:06.478Z,95796.56
2019-04-25T06:48:38.270Z,95803.11
2019-04-25T06:51:06.011Z,95805.72
2019-04-25T06:53:34.842Z,95805.26
2019-04-25T06:56:11.308Z,95808.84
2019-04-25T06:58:38.917Z,95808.42
2019-04-25T07:01:11.414Z,95803.78
2019-04-25T07:03:44.258Z,95800.64
2019-04-25T07:06:12.942Z,95804.10
2019-04-25T07:08:46.611Z,95808.56
2019-04-25T07:11:14.468Z,95805.52
2019-04-25T07:13:45.641Z,95805.88
2019-04-25T07:16:23.164Z,95795.83
2019-04-25T07:18:50.933Z,95803.53
2019-04-25T07:21:20.618Z,95808.70
2019-04-25T07:23:51.444Z,95811.48
2019-04-25T07:26:20.672Z,95801.59
2019-04-25T07:28:55.392Z,95802.06
2019-04-25T07:31:29.093Z,95805.64
2019-04-25T07:34:14.581Z,95800.70
2019-04-25T07:36:47.069Z,95800.23
2019-04-25T07:39:27.887Z,95799.61
2019-04-25T07:42:05.013Z,95802.31
2019-04-25T07:44:49.117Z,95802.11
2019-04-25T07:47:11.218Z,95798.48
2019-04-25T07:49:43.280Z,95796.70
2019-04-25T07:52:11.573Z,95794.07
2019-04-25T07:54:44.063Z,95786.42
2019-04-25T07:57:11.669Z,95783.64
2019-04-25T07:59:45.443Z,95776.87
2019-04-25T08:02:29.685Z,95772.55
2019-04-25T08:05:25.342Z,95763.93
2019-04-25T08:08:08.257Z,95768.20
2019-04-25T08:10:36.027Z,95780.27
2019-04-25T08:13:08.187Z,95785.08
2019-04-25T08:15:39.227Z,95789.52
2019-04-25T08:18:06.612Z,95780.89
2019-04-25T08:20:35.779Z,95772.01
2019-04-25T08:23:05.394Z,95775.39
2019-04-25T08:25:37.648Z,95768.66
2019-04-25T08:28:04.606Z,95756.63
2019-04-25T08:30:34.180Z,95774.16
2019-04-25T08:33:05.097Z,95760.50
2019-04-25T08:35:34.286Z,95762.92
2019-04-25T08:38:01.392Z,95762.95
2019-04-25T08:40:35.679Z,95757.24
2019-04-25T08:43:00.175Z,95759.19
2019-04-25T08:45:27.599Z,95758.48
2019-04-25T08:47:55.111Z,95758.55
2019-04-25T08:50:29.048Z,95747.27
2019-04-25T08:52:50.096Z,95752.86
2019-04-25T08:55:20.872Z,95741.43
2019-04-25T08:57:48.718Z,95738.69
2019-04-25T09:00:14.379Z,95727.83
2019-04-25T09:02:40.839Z,95731.41
2019-04-25T09:05:07.479Z,95733.87
2019-04-25T09:07:35.395Z,95731.92
2019-04-25T09:10:00.740Z,95729.00
2019-04-25T09:12:27.426Z,95722.56
2019-04-25T09:14:54.288Z,95720.11
2019-04-25T09:17:20.750Z,95716.27
2019-04-25T09:19:47.400Z,95708.75
2019-04-25T09:22:14.083Z,95700.61
2019-04-25T09:24:40.740Z,95702.48
2019-04-25T09:27:07.395Z,95697.62
2019-04-25T09:29:35.246Z,95684.92
2019-04-25T09:32:00.694Z,95697.38
2019-04-25T09:34:27.348Z,95703.39
2019-04-25T09:36:54.030Z,95705.24
2019-04-25T09:39:20.681Z,95700.16
2019-04-25T09:41:47.316Z,95702.95
2019-04-25T09:44:14.437Z,95697.06
2019-04-25T09:46:40.655Z,95695.91
2019-04-25T09:49:07.298Z,95689.52
2019-04-25T09:51:33.958Z,95681.40
2019-04-25T09:54:00.601Z,95684.88
2019-04-25T09:56:27.276Z,95680.95
2019-04-25T09:58:54.025Z,95676.47
2019-04-25T10:01:20.548Z,95675.94
2019-04-25T10:03:47.399Z,95669.66
2019-04-25T10:06:13.870Z,95668.80
2019-04-25T10:08:41.097Z,95666.98
2019-04-25T10:11:07.160Z,95651.74
2019-04-25T10:13:33.815Z,95655.39
2019-04-25T10:16:00.464Z,95659.25
2019-04-25T10:18:27.136Z,95656.92
2019-04-25T10:20:54.207Z,95649.11
2019-04-25T10:23:20.464Z,95653.95
2019-04-25T10:28:13.802Z,95638.16
2019-04-25T10:30:41.050Z,95641.39
2019-04-25T10:33:07.126Z,95643.05
2019-04-25T10:35:46.439Z,95636.80
2019-04-25T10:38:00.458Z,95631.92
2019-04-25T10:40:27.102Z,95632.42
2019-04-25T10:42:53.731Z,95629.25
2019-04-25T10:45:23.515Z,95633.77
2019-04-25T10:47:47.005Z,95637.31
2019-04-25T10:50:16.775Z,95631.41
2019-04-25T10:52:45.808Z,95628.19
2019-04-25T10:55:11.147Z,95616.98
2019-04-25T10:57:37.790Z,95613.91
2019-04-25T11:00:08.982Z,95611.03
2019-04-25T11:02:31.133Z,95609.95
2019-04-25T11:04:57.776Z,95609.38
2019-04-25T11:07:24.409Z,95608.18
2019-04-25T11:09:51.350Z,95605.88
2019-04-25T11:12:17.713Z,95601.31
2019-04-25T11:14:44.397Z,95617.91
2019-04-25T11:17:11.041Z,95616.83
2019-04-25T11:19:37.681Z,95607.23
2019-04-25T11:22:04.331Z,95607.09
2019-04-25T11:24:30.973Z,95606.53
2019-04-25T11:26:57.610Z,95601.52
2019-04-25T11:29:24.246Z,95598.70
2019-04-25T11:31:50.941Z,95594.97
2019-04-25T11:34:17.526Z,95588.69
2019-04-25T11:36:44.286Z,95580.94
2019-04-25T11:39:10.927Z,95579.77
2019-04-25T11:41:37.566Z,95581.70
2019-04-25T11:44:04.570Z,95582.45
2019-04-25T11:46:31.208Z,95571.70
2019-04-25T11:48:57.862Z,95567.77
2019-04-25T11:51:24.503Z,95570.74
2019-04-25T11:53:51.572Z,95569.98
2019-04-25T11:56:17.808Z,95564.66
2019-04-25T11:58:45.642Z,95563.20
2019-04-25T12:01:11.116Z,95561.77
2019-04-25T12:03:37.754Z,95556.33
2019-04-25T12:06:04.411Z,95550.91
2019-04-25T12:08:31.048Z,95549.64
2019-04-25T12:10:57.703Z,95539.88
2019-04-25T12:13:24.390Z,95538.34
2019-04-25T12:15:51.846Z,95534.84
2019-04-25T12:18:17.644Z,95528.88
2019-04-25T12:20:47.519Z,95531.23
2019-04-25T12:23:16.479Z,95522.72
2019-04-25T12:25:40.978Z,95512.95
2019-04-25T12:28:07.613Z,95510.80
2019-04-25T12:30:39.810Z,95509.79
2019-04-25T12:33:00.903Z,95505.84
2019-04-25T12:35:27.559Z,95506.11
2019-04-25T12:37:57.200Z,95500.67
2019-04-25T12:40:24.303Z,95498.42
2019-04-25T12:42:52.789Z,95499.81
2019-04-25T12:45:17.192Z,95495.02
2019-04-25T12:47:43.842Z,95485.65
2019-04-25T12:50:10.488Z,95491.09
2019-04-25T12:52:37.131Z,95484.52
2019-04-25T12:55:04.059Z,95474.77
2019-04-25T12:57:30.412Z,95476.22
2019-04-25T12:59:57.599Z,95470.80
2019-04-25T13:02:23.698Z,95468.91
2019-04-25T13:04:50.475Z,95463.56
2019-04-25T13:07:16.993Z,95462.01
2019-04-25T13:09:43.623Z,95460.01
2019-04-25T13:14:36.918Z,95457.34
2019-04-25T13:17:06.517Z,95450.34
2019-04-25T13:19:30.204Z,95448.74
2019-04-25T13:21:57.094Z,95440.92
2019-04-25T13:24:23.501Z,95441.41
2019-04-25T13:26:50.169Z,95433.70
2019-04-25T13:29:16.839Z,95432.04
2019-04-25T13:31:44.301Z,95431.97
2019-04-25T13:34:10.120Z,95431.28
2019-04-25T13:36:36.756Z,95433.17
2019-04-25T13:39:04.341Z,95427.70
2019-04-25T13:41:30.086Z,95423.32
2019-04-25T13:43:57.676Z,95422.03
2019-04-25T13:46:26.095Z,95418.52
2019-04-25T13:48:50.010Z,95421.83
2019-04-25T13:51:16.698Z,95418.33
2019-04-25T13:53:43.502Z,95416.25
2019-04-25T13:56:10.018Z,95412.71
2019-04-25T13:58:36.656Z,95418.15
2019-04-25T14:01:12.950Z,95426.40
2019-04-25T14:03:29.939Z,95426.83
2019-04-25T14:05:56.592Z,95422.77
2019-04-25T14:08:24.675Z,95420.30
2019-04-25T14:10:49.862Z,95422.03
2019-04-25T14:13:16.496Z,95416.34
2019-04-25T14:15:44.969Z,95415.17
2019-04-25T14:18:09.777Z,95426.16
2019-04-25T14:20:36.438Z,95426.13
2019-04-25T14:23:03.524Z,95429.16
2019-04-25T14:25:29.837Z,95435.48
2019-04-25T14:27:56.352Z,95442.54
2019-04-25T14:32:49.684Z,95435.78
2019-04-25T14:35:16.325Z,95431.52
2019-04-25T14:37:43.935Z,95423.19
2019-04-25T14:40:09.601Z,95417.77
2019-04-25T14:42:36.238Z,95423.64
2019-04-25T14:45:02.875Z,95414.91
2019-04-25T14:47:29.628Z,95412.03
2019-04-25T14:49:56.160Z,95419.34
2019-04-25T14:52:24.395Z,95422.30
2019-04-25T14:54:49.434Z,95423.23
2019-04-25T14:57:16.120Z,95421.11
2019-04-25T14:59:42.764Z,95425.09
2019-04-25T15:02:09.398Z,95427.63
2019-04-25T15:04:36.048Z,95426.01
2019-04-25T15:07:02.692Z,95429.62
2019-04-25T15:09:29.343Z,95437.19
2019-04-25T15:11:55.978Z,95445.22
2019-04-25T15:14:23.541Z,95446.73
2019-04-25T15:16:49.254Z,95448.27
2019-04-25T15:19:15.895Z,95450.75
2019-04-25T15:21:42.527Z,95452.91
2019-04-25T15:24:09.178Z,95449.61
2019-04-25T15:26:35.818Z,95454.67
2019-04-25T15:29:02.456Z,95451.39
2019-04-25T15:31:29.994Z,95454.61
2019-04-25T15:33:55.762Z,95457.55
2019-04-25T15:36:22.401Z,95463.71
2019-04-25T15:38:49.046Z,95463.78
2019-04-25T15:41:15.677Z,95459.15
2019-04-25T15:43:42.324Z,95461.88
2019-04-25T15:46:08.962Z,95457.48
2019-04-25T15:48:35.628Z,95453.05
2019-04-25T15:51:02.267Z,95449.16
2019-04-25T15:53:29.344Z,95442.64
2019-04-25T15:55:55.555Z,95444.47
2019-04-25T15:58:22.195Z,95452.28
2019-04-25T16:00:48.862Z,95459.20
2019-04-25T16:03:15.499Z,95458.86
2019-04-25T16:05:42.145Z,95461.73
2019-04-25T16:08:08.824Z,95471.30
2019-04-25T16:10:36.446Z,95468.19
2019-04-25T16:13:02.107Z,95473.06
2019-04-25T16:15:29.066Z,95473.26
2019-04-25T16:17:55.474Z,95476.22
2019-04-25T16:20:22.123Z,95480.12
2019-04-25T16:25:15.412Z,95482.47
2019-04-25T16:27:42.048Z,95493.62
2019-04-25T16:30:08.702Z,95485.80
2019-04-25T16:32:35.367Z,95493.62
2019-04-25T16:35:01.998Z,95494.55
2019-04-25T16:37:29.180Z,95489.63
2019-04-25T16:39:55.278Z,95484.73
2019-04-25T16:42:21.907Z,95487.55
2019-04-25T16:44:48.639Z,95477.69
2019-04-25T16:47:15.281Z,95467.81
2019-04-25T16:49:42.043Z,95467.36
2019-04-25T16:52:08.711Z,95467.23
2019-04-25T16:54:35.927Z,95474.50
2019-04-25T16:57:01.984Z,95474.64
2019-04-25T16:59:29.518Z,95476.80
2019-04-25T17:01:55.386Z,95477.73
2019-04-25T17:04:22.069Z,95487.25
2019-04-25T17:06:48.718Z,95491.00
2019-04-25T17:09:15.354Z,95494.09
2019-04-25T17:11:42.023Z,95497.64
2019-04-25T17:14:08.672Z,95500.15
2019-04-25T17:16:35.309Z,95501.21
2019-04-25T17:19:01.988Z,95501.34
2019-04-25T17:21:28.693Z,95496.73
2019-04-25T17:23:55.333Z,95492.86
2019-04-25T17:26:21.987Z,95497.05
2019-04-25T17:28:48.622Z,95496.67
2019-04-25T17:31:15.262Z,95500.23
2019-04-25T17:33:42.510Z,95502.80
2019-04-25T17:36:08.545Z,95508.48
2019-04-25T17:38:35.487Z,95510.67
2019-04-25T17:43:28.478Z,95510.97
2019-04-25T17:45:55.122Z,95506.14
2019-04-25T17:48:21.760Z,95514.66
2019-04-25T17:50:48.399Z,95519.93
2019-04-25T17:53:15.059Z,95519.97
2019-04-25T17:55:41.690Z,95523.89
2019-04-25T17:58:08.367Z,95522.13
2019-04-25T18:00:35.318Z,95519.72
2019-04-25T18:05:28.306Z,95533.13
2019-04-25T18:07:54.947Z,95537.89
2019-04-25T18:10:21.600Z,95542.20
2019-04-25T18:12:48.239Z,95540.69
2019-04-25T18:15:14.912Z,95549.84
2019-04-25T18:17:42.370Z,95555.50
2019-04-25T18:20:08.201Z,95550.02
2019-04-25T18:22:35.352Z,95551.33
2019-04-25T18:25:01.479Z,95559.44
2019-04-25T18:27:28.113Z,95562.86
2019-04-25T18:29:54.758Z,95575.41
2019-04-25T18:32:21.397Z,95577.00
2019-04-25T18:34:48.048Z,95580.90
2019-04-25T18:39:41.959Z,95585.51
2019-04-25T18:42:08.187Z,95583.86
2019-04-25T18:44:35.623Z,95585.00
2019-04-25T18:47:01.314Z,95583.65
2019-04-25T18:49:27.962Z,95583.87
2019-04-25T18:51:57.975Z,95583.65
2019-04-25T18:54:21.327Z,95575.50
2019-04-25T18:56:47.968Z,95574.53
2019-04-25T18:59:14.710Z,95577.70
2019-04-25T19:01:41.669Z,95577.23
2019-04-25T19:04:07.982Z,95572.16
2019-04-25T19:06:34.619Z,95576.89
2019-04-25T19:09:01.266Z,95583.35
2019-04-25T19:13:54.548Z,95570.22
2019-04-25T19:16:21.194Z,95569.70
2019-04-25T19:18:48.051Z,95569.84
2019-04-25T19:21:14.556Z,95572.75
2019-04-25T19:23:41.793Z,95573.83
2019-04-25T19:26:07.836Z,95569.86
2019-04-25T19:28:34.525Z,95573.17
2019-04-25T19:31:01.127Z,95571.40
2019-04-25T19:33:35.527Z,95573.08
2019-04-25T19:35:54.409Z,95573.75
2019-04-25T19:38:21.049Z,95578.80
2019-04-25T19:40:48.124Z,95571.59
2019-04-25T19:43:14.412Z,95566.35
2019-04-25T19:45:41.070Z,95571.20
2019-04-25T19:48:07.700Z,95566.86
2019-04-25T19:50:34.334Z,95570.66
2019-04-25T19:53:00.979Z,95568.16
2019-04-25T19:55:27.618Z,95567.91
2019-04-25T19:57:54.246Z,95559.80
2019-04-25T20:00:20.886Z,95561.23
2019-04-25T20:02:48.647Z,95559.05
2019-04-25T20:05:14.186Z,95560.26
2019-04-25T20:07:43.735Z,95564.41
2019-04-25T20:10:07.458Z,95561.14
2019-04-25T20:12:34.111Z,95559.28
2019-04-25T20:15:00.765Z,95563.42
2019-04-25T20:17:27.403Z,95566.50
2019-04-25T20:19:54.056Z,95573.20
2019-04-25T20:22:20.703Z,95577.26
2019-04-25T20:24:48.253Z,95578.09
2019-04-25T20:27:13.990Z,95577.80
2019-04-25T20:29:40.634Z,95573.41
2019-04-25T20:32:07.325Z,95573.63
2019-04-25T20:34:33.920Z,95576.82
2019-04-25T20:37:00.591Z,95578.53
2019-04-25T20:39:27.830Z,95581.66
2019-04-25T20:41:53.970Z,95580.55
2019-04-25T20:44:20.508Z,95578.56
2019-04-25T20:46:47.144Z,95577.64
2019-04-25T20:49:13.792Z,95576.41
2019-04-25T20:51:40.438Z,95576.16
2019-04-25T20:54:07.092Z,95577.80
2019-04-25T20:56:33.728Z,95586.16
2019-04-25T20:59:00.370Z,95584.03
2019-04-25T21:01:27.052Z,95588.44
2019-04-25T21:03:54.086Z,95584.03
2019-04-25T21:06:20.340Z,95581.25
2019-04-25T21:08:47.024Z,95582.92
2019-04-25T21:11:13.663Z,95582.20
2019-04-25T21:13:40.301Z,95576.73
2019-04-25T21:16:06.943Z,95571.82
2019-04-25T21:18:33.581Z,95573.44
2019-04-25T21:21:01.230Z,95569.67
2019-04-25T21:23:26.894Z,95573.47
2019-04-25T21:25:53.534Z,95575.52
2019-04-25T21:28:20.173Z,95580.33
2019-04-25T21:30:46.857Z,95573.78
2019-04-25T21:33:13.492Z,95577.73
2019-04-25T21:35:40.135Z,95581.65
2019-04-25T21:38:06.788Z,95574.31
2019-04-25T21:40:33.480Z,95573.70
2019-04-25T21:43:00.234Z,95578.27
2019-04-25T21:45:26.791Z,95577.28
2019-04-25T21:47:54.044Z,95577.38
2019-04-25T21:50:20.155Z,95578.92
2019-04-25T21:52:46.796Z,95581.58
2019-04-25T21:55:13.486Z,95575.00
2019-04-25T21:57:40.124Z,95585.17
2019-04-25T22:00:09.242Z,95580.98
2019-04-25T22:02:33.515Z,95579.10
2019-04-25T22:05:00.565Z,95576.17
2019-04-25T22:07:26.873Z,95577.81
2019-04-25T22:09:55.450Z,95573.66
2019-04-25T22:12:20.128Z,95576.45
2019-04-25T22:14:46.809Z,95576.09
2019-04-25T22:17:13.452Z,95564.87
2019-04-25T22:19:40.090Z,95568.98
2019-04-25T22:22:06.894Z,95574.58
2019-04-25T22:24:33.418Z,95564.48
2019-04-25T22:27:00.874Z,95568.28
2019-04-25T22:29:26.766Z,95565.82
2019-04-25T22:31:53.405Z,95571.09
2019-04-25T22:34:20.043Z,95566.41
2019-04-25T22:36:46.690Z,95560.59
2019-04-25T22:39:13.331Z,95568.94
2019-04-25T22:41:39.979Z,95563.91
2019-04-25T22:44:06.626Z,95559.86
2019-04-25T22:46:33.298Z,95564.59
2019-04-25T22:49:00.061Z,95561.91
2019-04-25T22:51:26.618Z,95562.13
2019-04-25T22:53:53.348Z,95558.37
2019-04-25T22:56:20.027Z,95561.66
2019-04-25T22:58:46.738Z,95563.72
2019-04-25T23:01:13.308Z,95571.80
2019-04-25T23:03:39.953Z,95569.54
2019-04-25T23:06:07.382Z,95574.97
2019-04-25T23:08:33.220Z,95568.41
2019-04-25T23:10:59.866Z,95564.11
2019-04-25T23:13:26.505Z,95564.73
2019-04-25T23:15:53.186Z,95562.73
2019-04-25T23:18:19.871Z,95561.83
2019-04-25T23:20:46.567Z,95574.48
2019-04-25T23:23:13.775Z,95577.53
2019-04-25T23:25:39.842Z,95567.94
2019-04-25T23:28:06.497Z,95572.36
2019-04-25T23:30:33.129Z,95565.66
2019-04-25T23:32:59.763Z,95568.95
2019-04-25T23:35:30.870Z,95569.83
2019-04-25T23:37:53.043Z,95568.19
2019-04-25T23:40:19.682Z,95570.48
2019-04-25T23:42:46.374Z,95563.53
2019-04-25T23:45:13.018Z,95562.14
2019-04-25T23:47:39.650Z,95563.28
2019-04-25T23:50:07.151Z,95569.88
2019-04-25T23:52:32.939Z,95561.91
2019-04-25T23:54:59.591Z,95564.31
2019-04-25T23:57:26.230Z,95566.76
2019-04-25T23:59:52.870Z,95573.28
